sensor_id;sensor_type;location;lat;lon;timestamp;P1;durP1;ratioP1;P2;durP2;ratioP2
33672;SDS011;20011;51.510;9.942;2023-06-22T00:00:02;37.60;;;13.63;;
33672;SDS011;20011;51.510;9.942;2023-06-22T00:02:37;23.42;;;12.50;;
33672;SDS011;20011;51.510;9.942;2023-06-22T00:05:04;16.02;;;12.05;;
33672;SDS011;20011;51.510;9.942;2023-06-22T00:07:31;23.63;;;12.48;;
33672;SDS011;20011;51.510;9.942;2023-06-22T00:09:58;25.13;;;12.25;;
33672;SDS011;20011;51.510;9.942;2023-06-22T00:12:25;20.92;;;12.95;;
33672;SDS011;20011;51.510;9.942;2023-06-22T00:14:52;16.30;;;11.10;;
33672;SDS011;20011;51.510;9.942;2023-06-22T00:17:19;25.85;;;12.88;;
33672;SDS011;20011;51.510;9.942;2023-06-22T00:19:47;18.48;;;11.52;;
33672;SDS011;20011;51.510;9.942;2023-06-22T00:22:14;22.98;;;11.98;;
33672;SDS011;20011;51.510;9.942;2023-06-22T00:24:41;21.42;;;12.80;;
33672;SDS011;20011;51.510;9.942;2023-06-22T00:27:08;21.20;;;13.18;;
33672;SDS011;20011;51.510;9.942;2023-06-22T00:29:35;24.48;;;13.52;;
33672;SDS011;20011;51.510;9.942;2023-06-22T00:32:02;19.55;;;12.48;;
33672;SDS011;20011;51.510;9.942;2023-06-22T00:34:30;19.45;;;12.20;;
33672;SDS011;20011;51.510;9.942;2023-06-22T00:36:58;20.75;;;11.93;;
33672;SDS011;20011;51.510;9.942;2023-06-22T00:39:26;30.63;;;11.60;;
33672;SDS011;20011;51.510;9.942;2023-06-22T00:41:52;28.33;;;11.15;;
33672;SDS011;20011;51.510;9.942;2023-06-22T00:44:19;17.83;;;10.43;;
33672;SDS011;20011;51.510;9.942;2023-06-22T00:46:46;28.65;;;12.48;;
33672;SDS011;20011;51.510;9.942;2023-06-22T00:49:15;32.28;;;12.35;;
33672;SDS011;20011;51.510;9.942;2023-06-22T00:51:42;22.55;;;12.93;;
33672;SDS011;20011;51.510;9.942;2023-06-22T00:54:12;21.67;;;11.05;;
33672;SDS011;20011;51.510;9.942;2023-06-22T00:56:40;22.30;;;12.40;;
33672;SDS011;20011;51.510;9.942;2023-06-22T00:59:07;22.55;;;10.63;;
33672;SDS011;20011;51.510;9.942;2023-06-22T01:01:38;18.02;;;11.20;;
33672;SDS011;20011;51.510;9.942;2023-06-22T01:04:07;24.23;;;11.88;;
33672;SDS011;20011;51.510;9.942;2023-06-22T01:06:38;23.20;;;11.25;;
33672;SDS011;20011;51.510;9.942;2023-06-22T01:09:15;24.15;;;11.20;;
33672;SDS011;20011;51.510;9.942;2023-06-22T01:11:49;21.33;;;11.82;;
33672;SDS011;20011;51.510;9.942;2023-06-22T01:14:31;28.80;;;12.35;;
33672;SDS011;20011;51.510;9.942;2023-06-22T01:17:11;23.20;;;11.15;;
33672;SDS011;20011;51.510;9.942;2023-06-22T01:19:49;18.27;;;10.63;;
33672;SDS011;20011;51.510;9.942;2023-06-22T01:22:27;27.10;;;10.98;;
33672;SDS011;20011;51.510;9.942;2023-06-22T01:25:07;21.77;;;10.27;;
33672;SDS011;20011;51.510;9.942;2023-06-22T01:27:59;31.10;;;11.15;;
33672;SDS011;20011;51.510;9.942;2023-06-22T01:30:46;19.20;;;10.73;;
33672;SDS011;20011;51.510;9.942;2023-06-22T01:33:33;19.33;;;11.10;;
33672;SDS011;20011;51.510;9.942;2023-06-22T01:36:03;26.25;;;10.68;;
33672;SDS011;20011;51.510;9.942;2023-06-22T01:38:32;21.92;;;9.43;;
33672;SDS011;20011;51.510;9.942;2023-06-22T01:41:00;22.73;;;10.38;;
33672;SDS011;20011;51.510;9.942;2023-06-22T01:43:28;34.83;;;10.85;;
33672;SDS011;20011;51.510;9.942;2023-06-22T01:45:56;23.33;;;10.88;;
33672;SDS011;20011;51.510;9.942;2023-06-22T01:48:24;24.95;;;10.65;;
33672;SDS011;20011;51.510;9.942;2023-06-22T01:50:52;40.80;;;10.43;;
33672;SDS011;20011;51.510;9.942;2023-06-22T01:53:20;34.00;;;10.02;;
33672;SDS011;20011;51.510;9.942;2023-06-22T01:55:50;30.33;;;10.75;;
33672;SDS011;20011;51.510;9.942;2023-06-22T01:58:19;38.13;;;10.70;;
33672;SDS011;20011;51.510;9.942;2023-06-22T02:00:48;24.70;;;11.60;;
33672;SDS011;20011;51.510;9.942;2023-06-22T02:03:19;20.27;;;11.75;;
33672;SDS011;20011;51.510;9.942;2023-06-22T02:05:56;19.10;;;11.88;;
33672;SDS011;20011;51.510;9.942;2023-06-22T02:08:30;19.25;;;12.13;;
33672;SDS011;20011;51.510;9.942;2023-06-22T02:11:09;29.10;;;12.60;;
33672;SDS011;20011;51.510;9.942;2023-06-22T02:13:37;26.48;;;13.02;;
33672;SDS011;20011;51.510;9.942;2023-06-22T02:16:10;16.55;;;11.60;;
33672;SDS011;20011;51.510;9.942;2023-06-22T02:18:45;20.83;;;12.93;;
33672;SDS011;20011;51.510;9.942;2023-06-22T02:21:20;17.23;;;12.40;;
33672;SDS011;20011;51.510;9.942;2023-06-22T02:23:47;22.35;;;12.98;;
33672;SDS011;20011;51.510;9.942;2023-06-22T02:26:16;18.75;;;12.07;;
33672;SDS011;20011;51.510;9.942;2023-06-22T02:28:44;22.73;;;12.43;;
33672;SDS011;20011;51.510;9.942;2023-06-22T02:31:12;19.52;;;11.45;;
33672;SDS011;20011;51.510;9.942;2023-06-22T02:33:39;26.90;;;12.48;;
33672;SDS011;20011;51.510;9.942;2023-06-22T02:36:06;25.23;;;12.18;;
33672;SDS011;20011;51.510;9.942;2023-06-22T02:38:35;22.95;;;12.32;;
33672;SDS011;20011;51.510;9.942;2023-06-22T02:41:02;23.13;;;13.30;;
33672;SDS011;20011;51.510;9.942;2023-06-22T02:43:29;22.83;;;12.30;;
33672;SDS011;20011;51.510;9.942;2023-06-22T02:45:56;28.88;;;13.75;;
33672;SDS011;20011;51.510;9.942;2023-06-22T02:48:23;30.17;;;13.07;;
33672;SDS011;20011;51.510;9.942;2023-06-22T02:50:51;30.83;;;12.77;;
33672;SDS011;20011;51.510;9.942;2023-06-22T02:53:18;22.17;;;11.65;;
33672;SDS011;20011;51.510;9.942;2023-06-22T02:55:46;22.90;;;12.35;;
33672;SDS011;20011;51.510;9.942;2023-06-22T02:58:13;21.98;;;12.80;;
33672;SDS011;20011;51.510;9.942;2023-06-22T03:00:40;27.17;;;12.38;;
33672;SDS011;20011;51.510;9.942;2023-06-22T03:03:07;28.58;;;12.73;;
33672;SDS011;20011;51.510;9.942;2023-06-22T03:05:34;28.42;;;12.30;;
33672;SDS011;20011;51.510;9.942;2023-06-22T03:08:02;34.78;;;12.25;;
33672;SDS011;20011;51.510;9.942;2023-06-22T03:10:32;27.23;;;13.27;;
33672;SDS011;20011;51.510;9.942;2023-06-22T03:12:59;27.23;;;11.65;;
33672;SDS011;20011;51.510;9.942;2023-06-22T03:15:26;32.60;;;12.48;;
33672;SDS011;20011;51.510;9.942;2023-06-22T03:17:56;27.40;;;12.50;;
33672;SDS011;20011;51.510;9.942;2023-06-22T03:20:23;37.00;;;13.23;;
33672;SDS011;20011;51.510;9.942;2023-06-22T03:22:51;23.40;;;12.48;;
33672;SDS011;20011;51.510;9.942;2023-06-22T03:25:19;20.08;;;12.73;;
33672;SDS011;20011;51.510;9.942;2023-06-22T03:27:48;22.25;;;11.70;;
33672;SDS011;20011;51.510;9.942;2023-06-22T03:30:15;32.92;;;12.27;;
33672;SDS011;20011;51.510;9.942;2023-06-22T03:32:42;26.42;;;12.82;;
33672;SDS011;20011;51.510;9.942;2023-06-22T03:35:09;23.17;;;11.75;;
33672;SDS011;20011;51.510;9.942;2023-06-22T03:37:39;28.05;;;12.15;;
33672;SDS011;20011;51.510;9.942;2023-06-22T03:40:06;24.25;;;11.55;;
33672;SDS011;20011;51.510;9.942;2023-06-22T03:42:34;19.88;;;10.48;;
33672;SDS011;20011;51.510;9.942;2023-06-22T03:45:02;14.13;;;9.48;;
33672;SDS011;20011;51.510;9.942;2023-06-22T03:47:30;18.88;;;9.27;;
33672;SDS011;20011;51.510;9.942;2023-06-22T03:49:58;15.75;;;10.10;;
33672;SDS011;20011;51.510;9.942;2023-06-22T03:52:25;22.65;;;10.38;;
33672;SDS011;20011;51.510;9.942;2023-06-22T03:54:52;19.52;;;10.35;;
33672;SDS011;20011;51.510;9.942;2023-06-22T03:57:19;15.93;;;11.65;;
33672;SDS011;20011;51.510;9.942;2023-06-22T03:59:45;19.10;;;11.48;;
33672;SDS011;20011;51.510;9.942;2023-06-22T04:02:12;17.90;;;12.13;;
33672;SDS011;20011;51.510;9.942;2023-06-22T04:04:39;15.93;;;11.02;;
33672;SDS011;20011;51.510;9.942;2023-06-22T04:07:07;17.20;;;10.65;;
33672;SDS011;20011;51.510;9.942;2023-06-22T04:09:34;15.98;;;11.25;;
33672;SDS011;20011;51.510;9.942;2023-06-22T04:12:02;22.23;;;11.23;;
33672;SDS011;20011;51.510;9.942;2023-06-22T04:14:29;14.88;;;10.50;;
33672;SDS011;20011;51.510;9.942;2023-06-22T04:16:56;16.73;;;10.50;;
33672;SDS011;20011;51.510;9.942;2023-06-22T04:19:23;26.05;;;11.88;;
33672;SDS011;20011;51.510;9.942;2023-06-22T04:21:50;20.10;;;11.45;;
33672;SDS011;20011;51.510;9.942;2023-06-22T04:24:17;23.23;;;10.65;;
33672;SDS011;20011;51.510;9.942;2023-06-22T04:26:44;18.25;;;11.23;;
33672;SDS011;20011;51.510;9.942;2023-06-22T04:29:14;24.38;;;12.23;;
33672;SDS011;20011;51.510;9.942;2023-06-22T04:31:41;24.75;;;12.00;;
33672;SDS011;20011;51.510;9.942;2023-06-22T04:34:08;24.55;;;12.00;;
33672;SDS011;20011;51.510;9.942;2023-06-22T04:36:36;19.40;;;11.70;;
33672;SDS011;20011;51.510;9.942;2023-06-22T04:39:08;22.08;;;12.38;;
33672;SDS011;20011;51.510;9.942;2023-06-22T04:41:39;17.88;;;12.65;;
33672;SDS011;20011;51.510;9.942;2023-06-22T04:44:13;19.67;;;12.13;;
33672;SDS011;20011;51.510;9.942;2023-06-22T04:46:50;25.25;;;13.10;;
33672;SDS011;20011;51.510;9.942;2023-06-22T04:49:26;25.85;;;13.20;;
33672;SDS011;20011;51.510;9.942;2023-06-22T04:52:02;21.65;;;13.23;;
33672;SDS011;20011;51.510;9.942;2023-06-22T04:54:31;29.77;;;13.63;;
33672;SDS011;20011;51.510;9.942;2023-06-22T04:57:05;22.77;;;14.23;;
33672;SDS011;20011;51.510;9.942;2023-06-22T04:59:37;32.17;;;14.70;;
33672;SDS011;20011;51.510;9.942;2023-06-22T05:02:08;34.72;;;15.25;;
33672;SDS011;20011;51.510;9.942;2023-06-22T05:04:35;20.92;;;14.05;;
33672;SDS011;20011;51.510;9.942;2023-06-22T05:07:05;18.98;;;14.55;;
33672;SDS011;20011;51.510;9.942;2023-06-22T05:09:33;28.88;;;15.60;;
33672;SDS011;20011;51.510;9.942;2023-06-22T05:12:00;25.95;;;16.33;;
33672;SDS011;20011;51.510;9.942;2023-06-22T05:14:29;23.85;;;15.95;;
33672;SDS011;20011;51.510;9.942;2023-06-22T05:16:56;24.92;;;16.52;;
33672;SDS011;20011;51.510;9.942;2023-06-22T05:19:30;31.73;;;16.60;;
33672;SDS011;20011;51.510;9.942;2023-06-22T05:22:00;26.55;;;16.45;;
33672;SDS011;20011;51.510;9.942;2023-06-22T05:24:27;24.13;;;15.60;;
33672;SDS011;20011;51.510;9.942;2023-06-22T05:27:12;26.95;;;16.65;;
33672;SDS011;20011;51.510;9.942;2023-06-22T05:29:57;26.52;;;16.35;;
33672;SDS011;20011;51.510;9.942;2023-06-22T05:32:41;26.90;;;16.10;;
33672;SDS011;20011;51.510;9.942;2023-06-22T05:35:25;29.90;;;17.70;;
33672;SDS011;20011;51.510;9.942;2023-06-22T05:37:52;31.58;;;16.98;;
33672;SDS011;20011;51.510;9.942;2023-06-22T05:40:19;35.10;;;17.27;;
33672;SDS011;20011;51.510;9.942;2023-06-22T05:42:46;28.42;;;16.85;;
33672;SDS011;20011;51.510;9.942;2023-06-22T05:45:14;26.92;;;16.80;;
33672;SDS011;20011;51.510;9.942;2023-06-22T05:47:40;23.27;;;16.50;;
33672;SDS011;20011;51.510;9.942;2023-06-22T05:50:07;31.17;;;17.05;;
33672;SDS011;20011;51.510;9.942;2023-06-22T05:52:38;33.55;;;18.75;;
33672;SDS011;20011;51.510;9.942;2023-06-22T05:55:05;31.63;;;19.50;;
33672;SDS011;20011;51.510;9.942;2023-06-22T05:57:32;37.83;;;21.48;;
33672;SDS011;20011;51.510;9.942;2023-06-22T05:59:59;36.72;;;19.77;;
33672;SDS011;20011;51.510;9.942;2023-06-22T06:02:26;28.52;;;20.48;;
33672;SDS011;20011;51.510;9.942;2023-06-22T06:04:53;34.30;;;21.13;;
33672;SDS011;20011;51.510;9.942;2023-06-22T06:07:20;31.92;;;20.45;;
33672;SDS011;20011;51.510;9.942;2023-06-22T06:09:48;31.20;;;20.80;;
33672;SDS011;20011;51.510;9.942;2023-06-22T06:12:15;32.40;;;19.20;;
33672;SDS011;20011;51.510;9.942;2023-06-22T06:14:42;31.58;;;19.92;;
33672;SDS011;20011;51.510;9.942;2023-06-22T06:17:08;32.33;;;22.88;;
33672;SDS011;20011;51.510;9.942;2023-06-22T06:19:35;34.28;;;22.15;;
33672;SDS011;20011;51.510;9.942;2023-06-22T06:22:02;37.15;;;22.63;;
33672;SDS011;20011;51.510;9.942;2023-06-22T06:24:29;30.88;;;22.55;;
33672;SDS011;20011;51.510;9.942;2023-06-22T06:26:56;38.17;;;23.65;;
33672;SDS011;20011;51.510;9.942;2023-06-22T06:29:23;34.97;;;23.60;;
33672;SDS011;20011;51.510;9.942;2023-06-22T06:31:50;37.03;;;23.25;;
33672;SDS011;20011;51.510;9.942;2023-06-22T06:34:20;34.30;;;21.48;;
33672;SDS011;20011;51.510;9.942;2023-06-22T06:36:47;35.63;;;20.80;;
33672;SDS011;20011;51.510;9.942;2023-06-22T06:39:14;32.58;;;20.48;;
33672;SDS011;20011;51.510;9.942;2023-06-22T06:41:42;32.72;;;21.55;;
33672;SDS011;20011;51.510;9.942;2023-06-22T06:44:14;32.60;;;19.52;;
33672;SDS011;20011;51.510;9.942;2023-06-22T06:46:41;28.92;;;19.17;;
33672;SDS011;20011;51.510;9.942;2023-06-22T06:49:08;28.77;;;18.67;;
33672;SDS011;20011;51.510;9.942;2023-06-22T06:51:35;33.70;;;19.45;;
33672;SDS011;20011;51.510;9.942;2023-06-22T06:54:02;26.40;;;17.83;;
33672;SDS011;20011;51.510;9.942;2023-06-22T06:56:29;33.45;;;19.27;;
33672;SDS011;20011;51.510;9.942;2023-06-22T06:58:56;27.77;;;17.67;;
33672;SDS011;20011;51.510;9.942;2023-06-22T07:01:25;24.38;;;16.77;;
33672;SDS011;20011;51.510;9.942;2023-06-22T07:03:52;24.05;;;17.83;;
33672;SDS011;20011;51.510;9.942;2023-06-22T07:06:20;28.25;;;18.35;;
33672;SDS011;20011;51.510;9.942;2023-06-22T07:08:46;20.40;;;16.48;;
33672;SDS011;20011;51.510;9.942;2023-06-22T07:11:13;23.77;;;17.27;;
33672;SDS011;20011;51.510;9.942;2023-06-22T07:13:40;27.73;;;17.40;;
33672;SDS011;20011;51.510;9.942;2023-06-22T07:16:07;32.78;;;17.42;;
33672;SDS011;20011;51.510;9.942;2023-06-22T07:18:34;29.40;;;16.15;;
33672;SDS011;20011;51.510;9.942;2023-06-22T07:21:01;22.98;;;16.50;;
33672;SDS011;20011;51.510;9.942;2023-06-22T07:23:30;26.13;;;16.52;;
33672;SDS011;20011;51.510;9.942;2023-06-22T07:25:57;25.02;;;16.00;;
33672;SDS011;20011;51.510;9.942;2023-06-22T07:28:23;30.75;;;18.15;;
33672;SDS011;20011;51.510;9.942;2023-06-22T07:30:50;25.52;;;16.73;;
33672;SDS011;20011;51.510;9.942;2023-06-22T07:33:17;29.77;;;18.13;;
33672;SDS011;20011;51.510;9.942;2023-06-22T07:35:44;26.23;;;16.10;;
33672;SDS011;20011;51.510;9.942;2023-06-22T07:38:13;23.15;;;16.65;;
33672;SDS011;20011;51.510;9.942;2023-06-22T07:40:41;24.15;;;16.02;;
33672;SDS011;20011;51.510;9.942;2023-06-22T07:43:08;25.17;;;14.95;;
33672;SDS011;20011;51.510;9.942;2023-06-22T07:45:35;22.73;;;17.05;;
33672;SDS011;20011;51.510;9.942;2023-06-22T07:48:01;26.15;;;16.60;;
33672;SDS011;20011;51.510;9.942;2023-06-22T07:50:28;26.45;;;16.75;;
33672;SDS011;20011;51.510;9.942;2023-06-22T07:52:56;27.05;;;17.42;;
33672;SDS011;20011;51.510;9.942;2023-06-22T07:55:23;25.00;;;16.33;;
33672;SDS011;20011;51.510;9.942;2023-06-22T07:57:50;19.85;;;16.38;;
33672;SDS011;20011;51.510;9.942;2023-06-22T08:00:18;24.60;;;16.77;;
33672;SDS011;20011;51.510;9.942;2023-06-22T08:02:46;29.73;;;17.08;;
33672;SDS011;20011;51.510;9.942;2023-06-22T08:05:14;24.30;;;14.93;;
33672;SDS011;20011;51.510;9.942;2023-06-22T08:07:44;25.45;;;15.13;;
33672;SDS011;20011;51.510;9.942;2023-06-22T08:10:15;22.20;;;15.38;;
33672;SDS011;20011;51.510;9.942;2023-06-22T08:12:42;19.60;;;15.77;;
33672;SDS011;20011;51.510;9.942;2023-06-22T08:15:09;29.48;;;15.80;;
33672;SDS011;20011;51.510;9.942;2023-06-22T08:17:37;22.63;;;14.55;;
33672;SDS011;20011;51.510;9.942;2023-06-22T08:20:05;21.73;;;15.23;;
33672;SDS011;20011;51.510;9.942;2023-06-22T08:22:38;17.55;;;14.57;;
33672;SDS011;20011;51.510;9.942;2023-06-22T08:25:06;20.60;;;14.38;;
33672;SDS011;20011;51.510;9.942;2023-06-22T08:27:33;15.38;;;11.75;;
33672;SDS011;20011;51.510;9.942;2023-06-22T08:30:00;13.77;;;10.25;;
33672;SDS011;20011;51.510;9.942;2023-06-22T08:32:28;10.93;;;8.20;;
33672;SDS011;20011;51.510;9.942;2023-06-22T08:34:56;12.20;;;9.77;;
33672;SDS011;20011;51.510;9.942;2023-06-22T08:37:23;10.73;;;8.85;;
33672;SDS011;20011;51.510;9.942;2023-06-22T08:39:58;10.30;;;7.68;;
33672;SDS011;20011;51.510;9.942;2023-06-22T08:42:25;10.30;;;6.53;;
33672;SDS011;20011;51.510;9.942;2023-06-22T08:44:53;8.52;;;6.30;;
33672;SDS011;20011;51.510;9.942;2023-06-22T08:47:20;6.85;;;6.00;;
33672;SDS011;20011;51.510;9.942;2023-06-22T08:49:48;8.60;;;7.15;;
33672;SDS011;20011;51.510;9.942;2023-06-22T08:52:15;8.43;;;7.20;;
33672;SDS011;20011;51.510;9.942;2023-06-22T08:54:43;8.70;;;7.63;;
33672;SDS011;20011;51.510;9.942;2023-06-22T08:57:10;8.50;;;6.40;;
33672;SDS011;20011;51.510;9.942;2023-06-22T08:59:37;9.27;;;5.90;;
33672;SDS011;20011;51.510;9.942;2023-06-22T09:02:04;8.63;;;5.85;;
33672;SDS011;20011;51.510;9.942;2023-06-22T09:04:31;6.00;;;5.40;;
33672;SDS011;20011;51.510;9.942;2023-06-22T09:07:01;9.13;;;4.63;;
33672;SDS011;20011;51.510;9.942;2023-06-22T09:09:29;5.45;;;4.72;;
33672;SDS011;20011;51.510;9.942;2023-06-22T09:11:56;5.15;;;4.65;;
33672;SDS011;20011;51.510;9.942;2023-06-22T09:14:23;5.20;;;4.30;;
33672;SDS011;20011;51.510;9.942;2023-06-22T09:16:50;7.25;;;5.00;;
33672;SDS011;20011;51.510;9.942;2023-06-22T09:19:17;5.30;;;4.78;;
33672;SDS011;20011;51.510;9.942;2023-06-22T09:21:44;4.47;;;4.05;;
33672;SDS011;20011;51.510;9.942;2023-06-22T09:24:11;4.80;;;4.03;;
33672;SDS011;20011;51.510;9.942;2023-06-22T09:26:39;5.00;;;3.90;;
33672;SDS011;20011;51.510;9.942;2023-06-22T09:29:06;5.43;;;4.65;;
33672;SDS011;20011;51.510;9.942;2023-06-22T09:31:33;6.35;;;4.80;;
33672;SDS011;20011;51.510;9.942;2023-06-22T09:34:00;6.03;;;5.07;;
33672;SDS011;20011;51.510;9.942;2023-06-22T09:36:27;8.40;;;6.65;;
33672;SDS011;20011;51.510;9.942;2023-06-22T09:38:54;7.15;;;6.35;;
33672;SDS011;20011;51.510;9.942;2023-06-22T09:41:25;7.38;;;6.07;;
33672;SDS011;20011;51.510;9.942;2023-06-22T09:43:52;17.38;;;12.45;;
33672;SDS011;20011;51.510;9.942;2023-06-22T09:48:51;10.20;;;7.27;;
33672;SDS011;20011;51.510;9.942;2023-06-22T09:51:18;6.15;;;5.38;;
33672;SDS011;20011;51.510;9.942;2023-06-22T09:53:47;5.20;;;4.22;;
33672;SDS011;20011;51.510;9.942;2023-06-22T09:56:14;4.45;;;3.90;;
33672;SDS011;20011;51.510;9.942;2023-06-22T09:58:42;6.03;;;4.28;;
33672;SDS011;20011;51.510;9.942;2023-06-22T10:01:10;5.00;;;3.53;;
33672;SDS011;20011;51.510;9.942;2023-06-22T10:03:37;7.38;;;5.07;;
33672;SDS011;20011;51.510;9.942;2023-06-22T10:06:04;11.48;;;8.77;;
33672;SDS011;20011;51.510;9.942;2023-06-22T10:08:31;11.68;;;7.20;;
33672;SDS011;20011;51.510;9.942;2023-06-22T10:10:58;14.50;;;10.27;;
33672;SDS011;20011;51.510;9.942;2023-06-22T10:13:25;7.75;;;5.53;;
33672;SDS011;20011;51.510;9.942;2023-06-22T10:15:52;16.42;;;11.02;;
33672;SDS011;20011;51.510;9.942;2023-06-22T10:18:19;11.60;;;10.18;;
33672;SDS011;20011;51.510;9.942;2023-06-22T10:20:47;17.73;;;10.63;;
33672;SDS011;20011;51.510;9.942;2023-06-22T10:23:17;6.65;;;5.25;;
33672;SDS011;20011;51.510;9.942;2023-06-22T10:25:45;6.70;;;4.60;;
33672;SDS011;20011;51.510;9.942;2023-06-22T10:28:12;7.75;;;5.63;;
33672;SDS011;20011;51.510;9.942;2023-06-22T10:30:39;5.57;;;5.05;;
33672;SDS011;20011;51.510;9.942;2023-06-22T10:33:11;7.03;;;4.85;;
33672;SDS011;20011;51.510;9.942;2023-06-22T10:35:39;11.07;;;9.35;;
33672;SDS011;20011;51.510;9.942;2023-06-22T10:38:06;11.70;;;9.75;;
33672;SDS011;20011;51.510;9.942;2023-06-22T10:40:33;12.18;;;7.43;;
33672;SDS011;20011;51.510;9.942;2023-06-22T10:43:00;10.50;;;8.55;;
33672;SDS011;20011;51.510;9.942;2023-06-22T10:45:27;14.73;;;8.15;;
33672;SDS011;20011;51.510;9.942;2023-06-22T10:47:55;6.10;;;5.50;;
33672;SDS011;20011;51.510;9.942;2023-06-22T10:50:22;7.43;;;4.57;;
33672;SDS011;20011;51.510;9.942;2023-06-22T10:52:52;12.93;;;8.15;;
33672;SDS011;20011;51.510;9.942;2023-06-22T10:55:20;8.05;;;5.85;;
33672;SDS011;20011;51.510;9.942;2023-06-22T10:57:47;5.00;;;4.45;;
33672;SDS011;20011;51.510;9.942;2023-06-22T11:00:14;10.93;;;7.88;;
33672;SDS011;20011;51.510;9.942;2023-06-22T11:02:42;8.57;;;6.88;;
33672;SDS011;20011;51.510;9.942;2023-06-22T11:05:10;13.63;;;8.85;;
33672;SDS011;20011;51.510;9.942;2023-06-22T11:07:37;9.32;;;6.70;;
33672;SDS011;20011;51.510;9.942;2023-06-22T11:10:14;7.38;;;6.07;;
33672;SDS011;20011;51.510;9.942;2023-06-22T11:12:41;5.00;;;4.50;;
33672;SDS011;20011;51.510;9.942;2023-06-22T11:15:09;5.72;;;4.82;;
33672;SDS011;20011;51.510;9.942;2023-06-22T11:17:36;5.18;;;4.13;;
33672;SDS011;20011;51.510;9.942;2023-06-22T11:20:03;6.00;;;4.00;;
33672;SDS011;20011;51.510;9.942;2023-06-22T11:22:37;4.80;;;4.28;;
33672;SDS011;20011;51.510;9.942;2023-06-22T11:25:06;4.20;;;3.75;;
33672;SDS011;20011;51.510;9.942;2023-06-22T11:27:33;4.85;;;4.18;;
33672;SDS011;20011;51.510;9.942;2023-06-22T11:30:00;5.05;;;4.18;;
33672;SDS011;20011;51.510;9.942;2023-06-22T11:32:27;5.38;;;3.90;;
33672;SDS011;20011;51.510;9.942;2023-06-22T11:34:56;4.20;;;3.72;;
33672;SDS011;20011;51.510;9.942;2023-06-22T11:37:23;4.63;;;4.18;;
33672;SDS011;20011;51.510;9.942;2023-06-22T11:39:51;6.72;;;3.92;;
33672;SDS011;20011;51.510;9.942;2023-06-22T11:42:32;4.72;;;4.03;;
33672;SDS011;20011;51.510;9.942;2023-06-22T11:45:00;4.57;;;3.92;;
33672;SDS011;20011;51.510;9.942;2023-06-22T11:47:29;5.63;;;3.60;;
33672;SDS011;20011;51.510;9.942;2023-06-22T11:49:56;4.30;;;3.55;;
33672;SDS011;20011;51.510;9.942;2023-06-22T11:52:23;4.47;;;3.55;;
33672;SDS011;20011;51.510;9.942;2023-06-22T11:54:49;4.47;;;3.63;;
33672;SDS011;20011;51.510;9.942;2023-06-22T11:57:17;4.25;;;3.65;;
33672;SDS011;20011;51.510;9.942;2023-06-22T11:59:43;3.67;;;3.38;;
33672;SDS011;20011;51.510;9.942;2023-06-22T12:02:10;6.70;;;3.58;;
33672;SDS011;20011;51.510;9.942;2023-06-22T12:04:37;3.92;;;3.55;;
33672;SDS011;20011;51.510;9.942;2023-06-22T12:07:04;4.43;;;3.60;;
33672;SDS011;20011;51.510;9.942;2023-06-22T12:09:31;3.80;;;3.42;;
33672;SDS011;20011;51.510;9.942;2023-06-22T12:11:58;4.13;;;3.72;;
33672;SDS011;20011;51.510;9.942;2023-06-22T12:14:25;3.85;;;3.47;;
33672;SDS011;20011;51.510;9.942;2023-06-22T12:16:52;4.80;;;4.30;;
33672;SDS011;20011;51.510;9.942;2023-06-22T12:19:19;4.30;;;3.90;;
33672;SDS011;20011;51.510;9.942;2023-06-22T12:21:46;4.20;;;3.70;;
33672;SDS011;20011;51.510;9.942;2023-06-22T12:24:16;5.65;;;4.22;;
33672;SDS011;20011;51.510;9.942;2023-06-22T12:26:42;4.45;;;3.83;;
33672;SDS011;20011;51.510;9.942;2023-06-22T12:29:10;5.13;;;3.95;;
33672;SDS011;20011;51.510;9.942;2023-06-22T12:31:37;4.20;;;3.80;;
33672;SDS011;20011;51.510;9.942;2023-06-22T12:34:06;4.70;;;3.58;;
33672;SDS011;20011;51.510;9.942;2023-06-22T12:36:33;3.60;;;3.20;;
33672;SDS011;20011;51.510;9.942;2023-06-22T12:38:59;3.75;;;3.40;;
33672;SDS011;20011;51.510;9.942;2023-06-22T12:41:26;3.40;;;3.10;;
33672;SDS011;20011;51.510;9.942;2023-06-22T12:43:53;4.45;;;3.47;;
33672;SDS011;20011;51.510;9.942;2023-06-22T12:46:20;3.85;;;3.35;;
33672;SDS011;20011;51.510;9.942;2023-06-22T12:48:47;4.22;;;3.63;;
33672;SDS011;20011;51.510;9.942;2023-06-22T12:51:20;4.30;;;3.45;;
33672;SDS011;20011;51.510;9.942;2023-06-22T12:53:48;7.55;;;6.47;;
33672;SDS011;20011;51.510;9.942;2023-06-22T12:56:15;13.40;;;6.43;;
33672;SDS011;20011;51.510;9.942;2023-06-22T12:58:42;5.30;;;4.78;;
33672;SDS011;20011;51.510;9.942;2023-06-22T13:01:09;4.47;;;4.05;;
33672;SDS011;20011;51.510;9.942;2023-06-22T13:03:36;6.30;;;4.13;;
33672;SDS011;20011;51.510;9.942;2023-06-22T13:06:03;3.60;;;3.30;;
33672;SDS011;20011;51.510;9.942;2023-06-22T13:08:30;3.95;;;3.40;;
33672;SDS011;20011;51.510;9.942;2023-06-22T13:11:18;6.10;;;3.67;;
33672;SDS011;20011;51.510;9.942;2023-06-22T13:13:45;7.47;;;4.13;;
33672;SDS011;20011;51.510;9.942;2023-06-22T13:16:13;4.55;;;3.40;;
33672;SDS011;20011;51.510;9.942;2023-06-22T13:18:40;5.20;;;3.92;;
33672;SDS011;20011;51.510;9.942;2023-06-22T13:21:06;4.35;;;3.38;;
33672;SDS011;20011;51.510;9.942;2023-06-22T13:23:33;4.93;;;4.07;;
33672;SDS011;20011;51.510;9.942;2023-06-22T13:26:00;4.82;;;4.10;;
33672;SDS011;20011;51.510;9.942;2023-06-22T13:28:27;4.25;;;3.45;;
33672;SDS011;20011;51.510;9.942;2023-06-22T13:30:56;5.25;;;3.63;;
33672;SDS011;20011;51.510;9.942;2023-06-22T13:33:41;4.90;;;3.38;;
33672;SDS011;20011;51.510;9.942;2023-06-22T13:36:25;5.60;;;4.32;;
33672;SDS011;20011;51.510;9.942;2023-06-22T13:39:09;4.18;;;3.42;;
33672;SDS011;20011;51.510;9.942;2023-06-22T13:41:54;4.00;;;3.60;;
33672;SDS011;20011;51.510;9.942;2023-06-22T13:44:38;6.15;;;3.92;;
33672;SDS011;20011;51.510;9.942;2023-06-22T13:47:23;4.53;;;3.47;;
33672;SDS011;20011;51.510;9.942;2023-06-22T13:50:08;4.60;;;3.90;;
33672;SDS011;20011;51.510;9.942;2023-06-22T13:52:53;4.65;;;4.10;;
33672;SDS011;20011;51.510;9.942;2023-06-22T13:55:20;5.00;;;3.78;;
33672;SDS011;20011;51.510;9.942;2023-06-22T13:57:47;4.20;;;3.70;;
33672;SDS011;20011;51.510;9.942;2023-06-22T14:00:14;4.57;;;4.10;;
33672;SDS011;20011;51.510;9.942;2023-06-22T14:02:41;4.60;;;3.80;;
33672;SDS011;20011;51.510;9.942;2023-06-22T14:05:09;4.45;;;3.47;;
33672;SDS011;20011;51.510;9.942;2023-06-22T14:07:37;8.25;;;3.67;;
33672;SDS011;20011;51.510;9.942;2023-06-22T14:10:04;14.75;;;9.38;;
33672;SDS011;20011;51.510;9.942;2023-06-22T14:12:31;6.95;;;5.43;;
33672;SDS011;20011;51.510;9.942;2023-06-22T14:14:59;4.85;;;4.38;;
33672;SDS011;20011;51.510;9.942;2023-06-22T14:17:26;5.72;;;4.25;;
33672;SDS011;20011;51.510;9.942;2023-06-22T14:19:53;5.78;;;4.45;;
33672;SDS011;20011;51.510;9.942;2023-06-22T14:22:21;10.93;;;8.85;;
33672;SDS011;20011;51.510;9.942;2023-06-22T14:24:50;15.05;;;10.32;;
33672;SDS011;20011;51.510;9.942;2023-06-22T14:27:17;18.30;;;10.15;;
33672;SDS011;20011;51.510;9.942;2023-06-22T14:29:44;14.27;;;10.20;;
33672;SDS011;20011;51.510;9.942;2023-06-22T14:32:11;11.30;;;8.48;;
33672;SDS011;20011;51.510;9.942;2023-06-22T14:34:38;9.77;;;8.02;;
33672;SDS011;20011;51.510;9.942;2023-06-22T14:37:08;13.07;;;9.60;;
33672;SDS011;20011;51.510;9.942;2023-06-22T14:39:39;9.80;;;7.05;;
33672;SDS011;20011;51.510;9.942;2023-06-22T14:42:06;11.60;;;8.30;;